sensor_id;sensor_type;location;lat;lon;timestamp;temperature;humidity
18884;DHT22;9574;47.282;9.640;2023-06-14T00:00:46;17.10;99.90
18884;DHT22;9574;47.282;9.640;2023-06-14T00:03:14;17.00;99.90
18884;DHT22;9574;47.282;9.640;2023-06-14T00:05:43;17.00;99.90
18884;DHT22;9574;47.282;9.640;2023-06-14T00:08:12;16.90;99.90
18884;DHT22;9574;47.282;9.640;2023-06-14T00:10:40;16.90;99.90
18884;DHT22;9574;47.282;9.640;2023-06-14T00:13:08;16.90;99.90
18884;DHT22;9574;47.282;9.640;2023-06-14T00:15:35;17.00;99.90
18884;DHT22;9574;47.282;9.640;2023-06-14T00:18:03;17.00;99.90
18884;DHT22;9574;47.282;9.640;2023-06-14T00:20:32;16.90;99.90
18884;DHT22;9574;47.282;9.640;2023-06-14T00:23:00;16.90;99.90
18884;DHT22;9574;47.282;9.640;2023-06-14T00:25:27;16.90;99.90
18884;DHT22;9574;47.282;9.640;2023-06-14T00:27:56;16.90;99.90
18884;DHT22;9574;47.282;9.640;2023-06-14T00:30:23;16.90;99.90
18884;DHT22;9574;47.282;9.640;2023-06-14T00:32:51;16.90;99.90
18884;DHT22;9574;47.282;9.640;2023-06-14T00:35:18;16.90;99.90
18884;DHT22;9574;47.282;9.640;2023-06-14T00:37:45;17.00;99.90
18884;DHT22;9574;47.282;9.640;2023-06-14T00:40:12;16.90;99.90
18884;DHT22;9574;47.282;9.640;2023-06-14T00:42:39;16.90;99.90
18884;DHT22;9574;47.282;9.640;2023-06-14T00:45:09;16.80;99.90
18884;DHT22;9574;47.282;9.640;2023-06-14T00:47:37;16.70;99.90
18884;DHT22;9574;47.282;9.640;2023-06-14T00:50:07;16.60;99.90
18884;DHT22;9574;47.282;9.640;2023-06-14T00:52:35;16.60;99.90
18884;DHT22;9574;47.282;9.640;2023-06-14T00:55:02;16.60;99.90
18884;DHT22;9574;47.282;9.640;2023-06-14T00:57:29;16.60;99.90
18884;DHT22;9574;47.282;9.640;2023-06-14T00:59:57;16.50;99.90
18884;DHT22;9574;47.282;9.640;2023-06-14T01:02:25;16.60;99.90
18884;DHT22;9574;47.282;9.640;2023-06-14T01:04:53;16.70;99.90
18884;DHT22;9574;47.282;9.640;2023-06-14T01:07:33;16.70;99.90
18884;DHT22;9574;47.282;9.640;2023-06-14T01:10:24;16.60;99.90
18884;DHT22;9574;47.282;9.640;2023-06-14T01:12:58;16.60;99.90
18884;DHT22;9574;47.282;9.640;2023-06-14T01:15:30;16.60;99.90
18884;DHT22;9574;47.282;9.640;2023-06-14T01:17:59;16.60;99.90
18884;DHT22;9574;47.282;9.640;2023-06-14T01:20:29;16.60;99.90
18884;DHT22;9574;47.282;9.640;2023-06-14T01:22:59;16.50;99.90
18884;DHT22;9574;47.282;9.640;2023-06-14T01:25:26;16.40;99.90
18884;DHT22;9574;47.282;9.640;2023-06-14T01:27:56;16.40;99.90
18884;DHT22;9574;47.282;9.640;2023-06-14T01:30:24;16.30;99.90
18884;DHT22;9574;47.282;9.640;2023-06-14T01:32:52;16.30;99.90
18884;DHT22;9574;47.282;9.640;2023-06-14T01:35:20;16.30;99.90
18884;DHT22;9574;47.282;9.640;2023-06-14T01:37:48;16.20;99.90
18884;DHT22;9574;47.282;9.640;2023-06-14T01:40:18;16.10;99.90
18884;DHT22;9574;47.282;9.640;2023-06-14T01:42:46;16.10;99.90
18884;DHT22;9574;47.282;9.640;2023-06-14T01:45:15;16.00;99.90
18884;DHT22;9574;47.282;9.640;2023-06-14T01:47:43;16.00;99.90
18884;DHT22;9574;47.282;9.640;2023-06-14T01:50:12;16.00;99.90
18884;DHT22;9574;47.282;9.640;2023-06-14T01:52:39;16.00;99.90
18884;DHT22;9574;47.282;9.640;2023-06-14T01:55:07;16.10;99.90
18884;DHT22;9574;47.282;9.640;2023-06-14T01:57:36;16.10;99.90
18884;DHT22;9574;47.282;9.640;2023-06-14T02:00:04;16.00;99.90
18884;DHT22;9574;47.282;9.640;2023-06-14T02:02:36;16.10;99.90
18884;DHT22;9574;47.282;9.640;2023-06-14T02:05:03;16.00;99.90
18884;DHT22;9574;47.282;9.640;2023-06-14T02:07:31;15.90;99.90
18884;DHT22;9574;47.282;9.640;2023-06-14T02:09:59;15.80;99.90
18884;DHT22;9574;47.282;9.640;2023-06-14T02:12:26;15.80;99.90
18884;DHT22;9574;47.282;9.640;2023-06-14T02:14:54;15.80;99.90
18884;DHT22;9574;47.282;9.640;2023-06-14T02:17:22;15.90;99.90
18884;DHT22;9574;47.282;9.640;2023-06-14T02:19:49;16.00;99.90
18884;DHT22;9574;47.282;9.640;2023-06-14T02:22:16;15.90;99.90
18884;DHT22;9574;47.282;9.640;2023-06-14T02:24:43;15.90;99.90
18884;DHT22;9574;47.282;9.640;2023-06-14T02:27:11;15.80;99.90
18884;DHT22;9574;47.282;9.640;2023-06-14T02:29:38;15.80;99.90
18884;DHT22;9574;47.282;9.640;2023-06-14T02:32:10;15.80;99.90
18884;DHT22;9574;47.282;9.640;2023-06-14T02:34:37;15.80;99.90
18884;DHT22;9574;47.282;9.640;2023-06-14T02:37:07;15.80;99.90
18884;DHT22;9574;47.282;9.640;2023-06-14T02:39:34;16.30;99.90
18884;DHT22;9574;47.282;9.640;2023-06-14T02:42:02;16.60;99.90
18884;DHT22;9574;47.282;9.640;2023-06-14T02:44:29;16.40;99.90
18884;DHT22;9574;47.282;9.640;2023-06-14T02:46:56;16.10;99.90
18884;DHT22;9574;47.282;9.640;2023-06-14T02:49:25;15.80;99.90
18884;DHT22;9574;47.282;9.640;2023-06-14T02:51:52;15.60;99.90
18884;DHT22;9574;47.282;9.640;2023-06-14T02:54:19;15.40;99.90
18884;DHT22;9574;47.282;9.640;2023-06-14T02:56:46;15.30;99.90
18884;DHT22;9574;47.282;9.640;2023-06-14T02:59:13;15.30;99.90
18884;DHT22;9574;47.282;9.640;2023-06-14T03:01:40;15.20;99.90
18884;DHT22;9574;47.282;9.640;2023-06-14T03:04:07;15.10;99.90
18884;DHT22;9574;47.282;9.640;2023-06-14T03:06:36;15.10;99.90
18884;DHT22;9574;47.282;9.640;2023-06-14T03:09:05;15.10;99.90
18884;DHT22;9574;47.282;9.640;2023-06-14T03:11:32;15.10;99.90
18884;DHT22;9574;47.282;9.640;2023-06-14T03:14:00;15.10;99.90
18884;DHT22;9574;47.282;9.640;2023-06-14T03:16:29;15.10;99.90
18884;DHT22;9574;47.282;9.640;2023-06-14T03:18:57;15.10;99.90
18884;DHT22;9574;47.282;9.640;2023-06-14T03:21:24;15.00;99.90
18884;DHT22;9574;47.282;9.640;2023-06-14T03:23:53;14.90;99.90
18884;DHT22;9574;47.282;9.640;2023-06-14T03:26:20;15.00;99.90
18884;DHT22;9574;47.282;9.640;2023-06-14T03:28:48;15.10;99.90
18884;DHT22;9574;47.282;9.640;2023-06-14T03:31:15;15.00;99.90
18884;DHT22;9574;47.282;9.640;2023-06-14T03:33:42;14.90;99.90
18884;DHT22;9574;47.282;9.640;2023-06-14T03:36:09;14.80;99.90
18884;DHT22;9574;47.282;9.640;2023-06-14T03:38:36;14.80;99.90
18884;DHT22;9574;47.282;9.640;2023-06-14T03:41:05;14.90;99.90
18884;DHT22;9574;47.282;9.640;2023-06-14T03:43:32;14.90;99.90
18884;DHT22;9574;47.282;9.640;2023-06-14T03:46:00;14.90;99.90
18884;DHT22;9574;47.282;9.640;2023-06-14T03:48:27;14.70;99.90
18884;DHT22;9574;47.282;9.640;2023-06-14T03:50:54;14.60;99.90
18884;DHT22;9574;47.282;9.640;2023-06-14T03:53:21;14.60;99.90
18884;DHT22;9574;47.282;9.640;2023-06-14T03:55:50;14.60;99.90
18884;DHT22;9574;47.282;9.640;2023-06-14T03:58:19;14.60;99.90
18884;DHT22;9574;47.282;9.640;2023-06-14T04:00:47;14.60;99.90
18884;DHT22;9574;47.282;9.640;2023-06-14T04:03:14;14.60;99.90
18884;DHT22;9574;47.282;9.640;2023-06-14T04:05:42;14.60;99.90
18884;DHT22;9574;47.282;9.640;2023-06-14T04:08:10;14.60;99.90
18884;DHT22;9574;47.282;9.640;2023-06-14T04:10:40;14.50;99.90
18884;DHT22;9574;47.282;9.640;2023-06-14T04:13:07;14.50;99.90
18884;DHT22;9574;47.282;9.640;2023-06-14T04:15:39;14.60;99.90
18884;DHT22;9574;47.282;9.640;2023-06-14T04:18:08;14.50;99.90
18884;DHT22;9574;47.282;9.640;2023-06-14T04:20:35;14.80;99.90
18884;DHT22;9574;47.282;9.640;2023-06-14T04:23:11;15.00;99.90
18884;DHT22;9574;47.282;9.640;2023-06-14T04:25:40;14.90;99.90
18884;DHT22;9574;47.282;9.640;2023-06-14T04:28:11;14.90;99.90
18884;DHT22;9574;47.282;9.640;2023-06-14T04:30:41;14.90;99.90
18884;DHT22;9574;47.282;9.640;2023-06-14T04:33:08;14.90;99.90
18884;DHT22;9574;47.282;9.640;2023-06-14T04:35:36;15.00;99.90
18884;DHT22;9574;47.282;9.640;2023-06-14T04:38:04;15.10;99.90
18884;DHT22;9574;47.282;9.640;2023-06-14T04:40:35;15.10;99.90
18884;DHT22;9574;47.282;9.640;2023-06-14T04:43:08;15.10;99.90
18884;DHT22;9574;47.282;9.640;2023-06-14T04:45:38;15.30;99.90
18884;DHT22;9574;47.282;9.640;2023-06-14T04:48:07;15.70;99.90
18884;DHT22;9574;47.282;9.640;2023-06-14T04:50:34;15.90;99.90
18884;DHT22;9574;47.282;9.640;2023-06-14T04:53:01;16.30;99.90
18884;DHT22;9574;47.282;9.640;2023-06-14T04:55:28;16.40;99.90
18884;DHT22;9574;47.282;9.640;2023-06-14T04:57:55;15.90;99.90
18884;DHT22;9574;47.282;9.640;2023-06-14T05:00:22;15.80;99.90
18884;DHT22;9574;47.282;9.640;2023-06-14T05:02:50;15.70;99.90
18884;DHT22;9574;47.282;9.640;2023-06-14T05:05:20;16.00;99.90
18884;DHT22;9574;47.282;9.640;2023-06-14T05:07:46;16.10;99.90
18884;DHT22;9574;47.282;9.640;2023-06-14T05:10:14;16.20;99.90
18884;DHT22;9574;47.282;9.640;2023-06-14T05:12:40;16.30;99.90
18884;DHT22;9574;47.282;9.640;2023-06-14T05:15:09;16.50;99.90
18884;DHT22;9574;47.282;9.640;2023-06-14T05:17:37;16.60;99.90
18884;DHT22;9574;47.282;9.640;2023-06-14T05:20:07;16.60;99.90
18884;DHT22;9574;47.282;9.640;2023-06-14T05:22:37;16.60;99.90
18884;DHT22;9574;47.282;9.640;2023-06-14T05:25:04;16.70;99.90
18884;DHT22;9574;47.282;9.640;2023-06-14T05:27:31;16.90;99.90
18884;DHT22;9574;47.282;9.640;2023-06-14T05:30:01;17.10;99.90
18884;DHT22;9574;47.282;9.640;2023-06-14T05:32:29;17.00;99.90
18884;DHT22;9574;47.282;9.640;2023-06-14T05:34:57;16.90;99.90
18884;DHT22;9574;47.282;9.640;2023-06-14T05:37:24;17.00;99.90
18884;DHT22;9574;47.282;9.640;2023-06-14T05:39:52;17.20;99.90
18884;DHT22;9574;47.282;9.640;2023-06-14T05:42:19;17.40;99.90
18884;DHT22;9574;47.282;9.640;2023-06-14T05:44:46;17.50;99.90
18884;DHT22;9574;47.282;9.640;2023-06-14T05:47:13;17.70;99.90
18884;DHT22;9574;47.282;9.640;2023-06-14T05:49:40;17.90;99.90
18884;DHT22;9574;47.282;9.640;2023-06-14T05:52:08;18.00;99.90
18884;DHT22;9574;47.282;9.640;2023-06-14T05:54:35;18.00;99.90
18884;DHT22;9574;47.282;9.640;2023-06-14T05:57:04;18.10;99.90
18884;DHT22;9574;47.282;9.640;2023-06-14T05:59:31;18.10;99.90
18884;DHT22;9574;47.282;9.640;2023-06-14T06:01:58;18.10;99.90
18884;DHT22;9574;47.282;9.640;2023-06-14T06:04:25;18.20;99.90
18884;DHT22;9574;47.282;9.640;2023-06-14T06:06:52;18.20;99.90
18884;DHT22;9574;47.282;9.640;2023-06-14T06:09:19;18.30;99.90
18884;DHT22;9574;47.282;9.640;2023-06-14T06:11:46;18.20;99.90
18884;DHT22;9574;47.282;9.640;2023-06-14T06:14:15;18.20;99.90
18884;DHT22;9574;47.282;9.640;2023-06-14T06:16:42;18.30;99.90
18884;DHT22;9574;47.282;9.640;2023-06-14T06:19:09;18.30;99.90
18884;DHT22;9574;47.282;9.640;2023-06-14T06:21:36;18.40;99.90
18884;DHT22;9574;47.282;9.640;2023-06-14T06:24:04;18.50;99.90
18884;DHT22;9574;47.282;9.640;2023-06-14T06:26:31;18.50;99.90
18884;DHT22;9574;47.282;9.640;2023-06-14T06:28:58;18.50;99.90
18884;DHT22;9574;47.282;9.640;2023-06-14T06:31:27;18.60;99.90
18884;DHT22;9574;47.282;9.640;2023-06-14T06:33:55;18.80;99.90
18884;DHT22;9574;47.282;9.640;2023-06-14T06:36:22;18.90;99.90
18884;DHT22;9574;47.282;9.640;2023-06-14T06:38:49;19.00;99.90
18884;DHT22;9574;47.282;9.640;2023-06-14T06:41:16;19.10;99.90
18884;DHT22;9574;47.282;9.640;2023-06-14T06:43:43;19.00;99.90
18884;DHT22;9574;47.282;9.640;2023-06-14T06:46:10;19.00;99.90
18884;DHT22;9574;47.282;9.640;2023-06-14T06:48:39;19.00;99.90
18884;DHT22;9574;47.282;9.640;2023-06-14T06:51:06;18.90;99.60
18884;DHT22;9574;47.282;9.640;2023-06-14T06:53:33;19.00;99.40
18884;DHT22;9574;47.282;9.640;2023-06-14T06:56:00;19.10;99.90
18884;DHT22;9574;47.282;9.640;2023-06-14T06:58:27;19.20;99.50
18884;DHT22;9574;47.282;9.640;2023-06-14T07:00:54;19.10;99.10
18884;DHT22;9574;47.282;9.640;2023-06-14T07:03:22;18.90;99.90
18884;DHT22;9574;47.282;9.640;2023-06-14T07:05:50;18.90;99.90
18884;DHT22;9574;47.282;9.640;2023-06-14T07:08:17;19.10;99.50
18884;DHT22;9574;47.282;9.640;2023-06-14T07:10:44;19.10;99.40
18884;DHT22;9574;47.282;9.640;2023-06-14T07:13:11;19.30;99.70
18884;DHT22;9574;47.282;9.640;2023-06-14T07:15:38;19.40;99.20
18884;DHT22;9574;47.282;9.640;2023-06-14T07:18:05;19.50;98.50
18884;DHT22;9574;47.282;9.640;2023-06-14T07:20:32;19.50;99.00
18884;DHT22;9574;47.282;9.640;2023-06-14T07:23:06;19.60;99.10
18884;DHT22;9574;47.282;9.640;2023-06-14T07:25:42;19.90;97.90
18884;DHT22;9574;47.282;9.640;2023-06-14T07:28:09;20.10;98.10
18884;DHT22;9574;47.282;9.640;2023-06-14T07:30:36;20.10;98.10
18884;DHT22;9574;47.282;9.640;2023-06-14T07:33:02;19.90;99.80
18884;DHT22;9574;47.282;9.640;2023-06-14T07:35:29;20.00;99.10
18884;DHT22;9574;47.282;9.640;2023-06-14T07:37:56;20.00;99.80
18884;DHT22;9574;47.282;9.640;2023-06-14T07:40:25;20.00;99.50
18884;DHT22;9574;47.282;9.640;2023-06-14T07:42:52;19.90;99.50
18884;DHT22;9574;47.282;9.640;2023-06-14T07:45:20;20.10;99.60
18884;DHT22;9574;47.282;9.640;2023-06-14T07:47:47;20.50;99.20
18884;DHT22;9574;47.282;9.640;2023-06-14T07:50:14;20.70;98.70
18884;DHT22;9574;47.282;9.640;2023-06-14T07:52:41;20.50;98.60
18884;DHT22;9574;47.282;9.640;2023-06-14T07:55:08;20.60;98.20
18884;DHT22;9574;47.282;9.640;2023-06-14T07:57:37;20.90;97.70
18884;DHT22;9574;47.282;9.640;2023-06-14T08:00:05;21.10;97.90
18884;DHT22;9574;47.282;9.640;2023-06-14T08:02:33;21.30;97.90
18884;DHT22;9574;47.282;9.640;2023-06-14T08:05:00;21.50;96.60
18884;DHT22;9574;47.282;9.640;2023-06-14T08:07:27;21.60;96.90
18884;DHT22;9574;47.282;9.640;2023-06-14T08:09:54;21.80;96.80
18884;DHT22;9574;47.282;9.640;2023-06-14T08:12:21;21.90;97.30
18884;DHT22;9574;47.282;9.640;2023-06-14T08:14:49;22.00;96.40
18884;DHT22;9574;47.282;9.640;2023-06-14T08:17:17;22.10;95.70
18884;DHT22;9574;47.282;9.640;2023-06-14T08:19:44;22.20;95.90
18884;DHT22;9574;47.282;9.640;2023-06-14T08:22:11;22.30;95.80
18884;DHT22;9574;47.282;9.640;2023-06-14T08:24:38;22.40;95.70
18884;DHT22;9574;47.282;9.640;2023-06-14T08:27:06;22.40;96.00
18884;DHT22;9574;47.282;9.640;2023-06-14T08:29:33;22.50;95.40
18884;DHT22;9574;47.282;9.640;2023-06-14T08:32:01;22.60;95.90
18884;DHT22;9574;47.282;9.640;2023-06-14T08:34:28;22.70;95.70
18884;DHT22;9574;47.282;9.640;2023-06-14T08:36:55;22.70;94.40
18884;DHT22;9574;47.282;9.640;2023-06-14T08:39:22;22.90;95.10
18884;DHT22;9574;47.282;9.640;2023-06-14T08:41:50;22.90;93.40
18884;DHT22;9574;47.282;9.640;2023-06-14T08:44:18;23.00;94.10
18884;DHT22;9574;47.282;9.640;2023-06-14T08:46:47;23.10;94.30
18884;DHT22;9574;47.282;9.640;2023-06-14T08:49:17;23.20;94.00
18884;DHT22;9574;47.282;9.640;2023-06-14T08:51:44;23.30;94.20
18884;DHT22;9574;47.282;9.640;2023-06-14T08:54:13;23.30;93.30
18884;DHT22;9574;47.282;9.640;2023-06-14T08:56:40;23.50;92.50
18884;DHT22;9574;47.282;9.640;2023-06-14T08:59:09;23.60;92.00
18884;DHT22;9574;47.282;9.640;2023-06-14T09:01:37;23.70;93.10
18884;DHT22;9574;47.282;9.640;2023-06-14T09:04:04;23.70;93.60
18884;DHT22;9574;47.282;9.640;2023-06-14T09:06:33;23.90;90.40
18884;DHT22;9574;47.282;9.640;2023-06-14T09:09:02;24.00;91.50
18884;DHT22;9574;47.282;9.640;2023-06-14T09:11:30;24.20;92.90
18884;DHT22;9574;47.282;9.640;2023-06-14T09:13:57;24.40;92.50
18884;DHT22;9574;47.282;9.640;2023-06-14T09:16:25;24.60;91.90
18884;DHT22;9574;47.282;9.640;2023-06-14T09:18:54;24.70;91.70
18884;DHT22;9574;47.282;9.640;2023-06-14T09:21:21;24.90;90.80
18884;DHT22;9574;47.282;9.640;2023-06-14T09:23:49;24.80;91.30
18884;DHT22;9574;47.282;9.640;2023-06-14T09:26:17;24.90;92.10
18884;DHT22;9574;47.282;9.640;2023-06-14T09:28:46;24.80;92.80
18884;DHT22;9574;47.282;9.640;2023-06-14T09:31:14;24.90;92.70
18884;DHT22;9574;47.282;9.640;2023-06-14T09:33:42;25.00;91.80
18884;DHT22;9574;47.282;9.640;2023-06-14T09:36:15;25.30;92.90
18884;DHT22;9574;47.282;9.640;2023-06-14T09:38:53;25.30;92.50
18884;DHT22;9574;47.282;9.640;2023-06-14T09:41:20;25.10;92.50
18884;DHT22;9574;47.282;9.640;2023-06-14T09:43:47;25.10;93.70
18884;DHT22;9574;47.282;9.640;2023-06-14T09:46:15;25.00;93.10
18884;DHT22;9574;47.282;9.640;2023-06-14T09:48:42;25.00;93.50
18884;DHT22;9574;47.282;9.640;2023-06-14T09:51:10;24.90;95.40
18884;DHT22;9574;47.282;9.640;2023-06-14T09:53:41;25.00;93.90
18884;DHT22;9574;47.282;9.640;2023-06-14T09:56:12;24.80;94.40
18884;DHT22;9574;47.282;9.640;2023-06-14T09:58:39;24.90;93.50
18884;DHT22;9574;47.282;9.640;2023-06-14T10:01:08;24.80;92.90
18884;DHT22;9574;47.282;9.640;2023-06-14T10:03:39;24.70;92.80
18884;DHT22;9574;47.282;9.640;2023-06-14T10:06:08;24.80;92.90
18884;DHT22;9574;47.282;9.640;2023-06-14T10:08:36;24.90;92.70
18884;DHT22;9574;47.282;9.640;2023-06-14T10:11:04;24.90;92.30
18884;DHT22;9574;47.282;9.640;2023-06-14T10:13:33;25.00;93.00
18884;DHT22;9574;47.282;9.640;2023-06-14T10:16:07;25.00;92.30
18884;DHT22;9574;47.282;9.640;2023-06-14T10:18:41;25.10;92.70
18884;DHT22;9574;47.282;9.640;2023-06-14T10:21:22;25.20;92.80
18884;DHT22;9574;47.282;9.640;2023-06-14T10:23:52;25.30;93.20
18884;DHT22;9574;47.282;9.640;2023-06-14T10:26:20;25.40;93.20
18884;DHT22;9574;47.282;9.640;2023-06-14T10:29:01;25.60;92.80
18884;DHT22;9574;47.282;9.640;2023-06-14T10:31:41;25.60;93.30
18884;DHT22;9574;47.282;9.640;2023-06-14T10:34:09;25.80;93.50
18884;DHT22;9574;47.282;9.640;2023-06-14T10:36:36;25.80;93.50
18884;DHT22;9574;47.282;9.640;2023-06-14T10:39:07;25.90;93.00
18884;DHT22;9574;47.282;9.640;2023-06-14T10:41:36;25.90;92.70
18884;DHT22;9574;47.282;9.640;2023-06-14T10:44:39;25.90;92.40
18884;DHT22;9574;47.282;9.640;2023-06-14T10:47:08;25.90;92.40
18884;DHT22;9574;47.282;9.640;2023-06-14T10:49:38;26.00;92.20
18884;DHT22;9574;47.282;9.640;2023-06-14T10:52:09;26.00;92.90
18884;DHT22;9574;47.282;9.640;2023-06-14T10:55:01;26.10;92.10
18884;DHT22;9574;47.282;9.640;2023-06-14T10:57:29;26.30;92.80
18884;DHT22;9574;47.282;9.640;2023-06-14T10:59:59;26.40;92.80
18884;DHT22;9574;47.282;9.640;2023-06-14T11:02:51;26.40;91.30
18884;DHT22;9574;47.282;9.640;2023-06-14T11:05:24;26.40;91.40
18884;DHT22;9574;47.282;9.640;2023-06-14T11:08:10;26.40;91.60
18884;DHT22;9574;47.282;9.640;2023-06-14T11:10:40;26.50;91.50
18884;DHT22;9574;47.282;9.640;2023-06-14T11:13:08;26.50;91.80
18884;DHT22;9574;47.282;9.640;2023-06-14T11:15:38;26.60;91.10
18884;DHT22;9574;47.282;9.640;2023-06-14T11:18:06;26.60;91.10
18884;DHT22;9574;47.282;9.640;2023-06-14T11:20:35;26.60;90.50
18884;DHT22;9574;47.282;9.640;2023-06-14T11:23:03;26.80;88.60
18884;DHT22;9574;47.282;9.640;2023-06-14T11:25:30;27.00;90.20
18884;DHT22;9574;47.282;9.640;2023-06-14T11:27:58;27.10;91.00
18884;DHT22;9574;47.282;9.640;2023-06-14T11:30:26;27.20;89.80
18884;DHT22;9574;47.282;9.640;2023-06-14T11:32:55;27.30;91.00
18884;DHT22;9574;47.282;9.640;2023-06-14T11:35:23;27.40;90.70
18884;DHT22;9574;47.282;9.640;2023-06-14T11:37:58;27.70;90.50
18884;DHT22;9574;47.282;9.640;2023-06-14T11:40:27;27.80;87.80
18884;DHT22;9574;47.282;9.640;2023-06-14T11:42:59;27.70;88.00
18884;DHT22;9574;47.282;9.640;2023-06-14T11:45:26;27.70;87.70
18884;DHT22;9574;47.282;9.640;2023-06-14T11:47:55;27.70;88.20
18884;DHT22;9574;47.282;9.640;2023-06-14T11:50:23;27.70;87.10
18884;DHT22;9574;47.282;9.640;2023-06-14T11:52:53;27.70;90.20
18884;DHT22;9574;47.282;9.640;2023-06-14T11:55:22;27.70;90.80
18884;DHT22;9574;47.282;9.640;2023-06-14T11:57:49;27.90;86.40
18884;DHT22;9574;47.282;9.640;2023-06-14T12:00:17;27.90;87.80
18884;DHT22;9574;47.282;9.640;2023-06-14T12:02:53;27.90;89.30
18884;DHT22;9574;47.282;9.640;2023-06-14T12:05:22;27.90;89.00
18884;DHT22;9574;47.282;9.640;2023-06-14T12:07:49;28.10;83.30
18884;DHT22;9574;47.282;9.640;2023-06-14T12:10:19;28.10;82.80
18884;DHT22;9574;47.282;9.640;2023-06-14T12:12:47;28.10;84.50
18884;DHT22;9574;47.282;9.640;2023-06-14T12:15:15;28.20;83.00
18884;DHT22;9574;47.282;9.640;2023-06-14T12:17:43;28.30;82.90
18884;DHT22;9574;47.282;9.640;2023-06-14T12:20:12;28.20;82.30
18884;DHT22;9574;47.282;9.640;2023-06-14T12:22:50;28.20;82.00
18884;DHT22;9574;47.282;9.640;2023-06-14T12:25:24;28.10;81.50
18884;DHT22;9574;47.282;9.640;2023-06-14T12:27:55;28.00;83.50
18884;DHT22;9574;47.282;9.640;2023-06-14T12:30:22;28.20;83.50
18884;DHT22;9574;47.282;9.640;2023-06-14T12:32:49;28.20;81.60
18884;DHT22;9574;47.282;9.640;2023-06-14T12:35:17;28.10;84.20
18884;DHT22;9574;47.282;9.640;2023-06-14T12:37:45;28.30;82.40
18884;DHT22;9574;47.282;9.640;2023-06-14T12:40:12;28.40;83.20
18884;DHT22;9574;47.282;9.640;2023-06-14T12:42:40;28.50;82.30
18884;DHT22;9574;47.282;9.640;2023-06-14T12:45:09;28.50;81.80
18884;DHT22;9574;47.282;9.640;2023-06-14T12:47:36;28.50;81.10
18884;DHT22;9574;47.282;9.640;2023-06-14T12:50:04;28.50;80.30
18884;DHT22;9574;47.282;9.640;2023-06-14T12:52:31;28.70;79.40
18884;DHT22;9574;47.282;9.640;2023-06-14T12:55:02;28.80;81.80
18884;DHT22;9574;47.282;9.640;2023-06-14T12:57:29;28.70;80.00
18884;DHT22;9574;47.282;9.640;2023-06-14T12:59:56;28.70;82.50
18884;DHT22;9574;47.282;9.640;2023-06-14T13:02:25;28.70;81.00
18884;DHT22;9574;47.282;9.640;2023-06-14T13:04:52;28.80;81.00
18884;DHT22;9574;47.282;9.640;2023-06-14T13:07:19;28.60;80.60
18884;DHT22;9574;47.282;9.640;2023-06-14T13:09:46;28.70;80.00
18884;DHT22;9574;47.282;9.640;2023-06-14T13:12:13;28.80;80.50
18884;DHT22;9574;47.282;9.640;2023-06-14T13:14:41;28.90;81.70
18884;DHT22;9574;47.282;9.640;2023-06-14T13:17:09;28.90;80.20
18884;DHT22;9574;47.282;9.640;2023-06-14T13:19:37;29.00;80.40
18884;DHT22;9574;47.282;9.640;2023-06-14T13:22:05;29.00;80.70
18884;DHT22;9574;47.282;9.640;2023-06-14T13:24:33;29.10;80.80
18884;DHT22;9574;47.282;9.640;2023-06-14T13:27:00;29.10;80.00
18884;DHT22;9574;47.282;9.640;2023-06-14T13:29:27;29.20;80.90
18884;DHT22;9574;47.282;9.640;2023-06-14T13:31:56;29.20;80.50
18884;DHT22;9574;47.282;9.640;2023-06-14T13:34:23;29.20;80.10
18884;DHT22;9574;47.282;9.640;2023-06-14T13:36:52;29.00;81.70
18884;DHT22;9574;47.282;9.640;2023-06-14T13:39:19;29.10;80.20
18884;DHT22;9574;47.282;9.640;2023-06-14T13:41:46;29.10;79.20
18884;DHT22;9574;47.282;9.640;2023-06-14T13:44:13;29.20;79.20
18884;DHT22;9574;47.282;9.640;2023-06-14T13:46:43;29.10;78.90
18884;DHT22;9574;47.282;9.640;2023-06-14T13:49:10;29.20;80.60
18884;DHT22;9574;47.282;9.640;2023-06-14T13:51:37;29.20;80.50
18884;DHT22;9574;47.282;9.640;2023-06-14T13:54:06;29.20;79.20
18884;DHT22;9574;47.282;9.640;2023-06-14T13:56:35;29.30;79.80
18884;DHT22;9574;47.282;9.640;2023-06-14T13:59:08;29.30;78.50
18884;DHT22;9574;47.282;9.640;2023-06-14T14:01:36;29.40;80.50
18884;DHT22;9574;47.282;9.640;2023-06-14T14:04:03;29.50;78.70
18884;DHT22;9574;47.282;9.640;2023-06-14T14:06:31;29.50;80.10
18884;DHT22;9574;47.282;9.640;2023-06-14T14:08:57;29.50;80.00
18884;DHT22;9574;47.282;9.640;2023-06-14T14:11:26;29.40;79.00
18884;DHT22;9574;47.282;9.640;2023-06-14T14:13:57;29.30;80.20
18884;DHT22;9574;47.282;9.640;2023-06-14T14:16:24;29.30;79.30
18884;DHT22;9574;47.282;9.640;2023-06-14T14:18:51;29.30;79.30
18884;DHT22;9574;47.282;9.640;2023-06-14T14:21:18;29.30;80.70
18884;DHT22;9574;47.282;9.640;2023-06-14T14:23:45;29.40;78.70
18884;DHT22;9574;47.282;9.640;2023-06-14T14:26:12;29.40;79.60
18884;DHT22;9574;47.282;9.640;2023-06-14T14:28:41;29.40;79.40
18884;DHT22;9574;47.282;9.640;2023-06-14T14:31:08;29.50;77.70
18884;DHT22;9574;47.282;9.640;2023-06-14T14:33:35;29.40;77.80
18884;DHT22;9574;47.282;9.640;2023-06-14T14:36:03;29.30;78.60
18884;DHT22;9574;47.282;9.640;2023-06-14T14:38:32;29.30;78.00
18884;DHT22;9574;47.282;9.640;2023-06-14T14:40:59;29.20;79.20
18884;DHT22;9574;47.282;9.640;2023-06-14T14:43:26;29.30;80.50
18884;DHT22;9574;47.282;9.640;2023-06-14T14:46:00;29.30;79.00
18884;DHT22;9574;47.282;9.640;2023-06-14T14:48:27;29.30;77.90
18884;DHT22;9574;47.282;9.640;2023-06-14T14:50:54;29.00;80.70
18884;DHT22;9574;47.282;9.640;2023-06-14T14:53:21;29.10;78.70
18884;DHT22;9574;47.282;9.640;2023-06-14T14:55:48;28.90;79.50
18884;DHT22;9574;47.282;9.640;2023-06-14T14:58:15;28.90;79.50
18884;DHT22;9574;47.282;9.640;2023-06-14T15:00:44;29.00;78.10
18884;DHT22;9574;47.282;9.640;2023-06-14T15:03:12;29.10;78.00
18884;DHT22;9574;47.282;9.640;2023-06-14T15:05:39;29.20;78.30
18884;DHT22;9574;47.282;9.640;2023-06-14T15:08:07;29.20;78.40
18884;DHT22;9574;47.282;9.640;2023-06-14T15:10:37;29.20;78.40
18884;DHT22;9574;47.282;9.640;2023-06-14T15:13:06;29.10;80.00
18884;DHT22;9574;47.282;9.640;2023-06-14T15:15:34;29.20;77.80
18884;DHT22;9574;47.282;9.640;2023-06-14T15:18:01;29.20;77.70
18884;DHT22;9574;47.282;9.640;2023-06-14T15:20:29;29.20;79.20
18884;DHT22;9574;47.282;9.640;2023-06-14T15:22:57;29.10;78.90
18884;DHT22;9574;47.282;9.640;2023-06-14T15:25:25;28.90;79.70
18884;DHT22;9574;47.282;9.640;2023-06-14T15:27:52;29.10;79.20
18884;DHT22;9574;47.282;9.640;2023-06-14T15:30:20;29.20;78.60
18884;DHT22;9574;47.282;9.640;2023-06-14T15:32:55;29.10;76.80
18884;DHT22;9574;47.282;9.640;2023-06-14T15:35:23;29.10;77.80
18884;DHT22;9574;47.282;9.640;2023-06-14T15:37:53;28.90;76.60
18884;DHT22;9574;47.282;9.640;2023-06-14T15:40:20;28.80;78.90
18884;DHT22;9574;47.282;9.640;2023-06-14T15:42:47;28.80;78.90
18884;DHT22;9574;47.282;9.640;2023-06-14T15:45:14;28.70;77.50
18884;DHT22;9574;47.282;9.640;2023-06-14T15:47:41;28.70;77.30
18884;DHT22;9574;47.282;9.640;2023-06-14T15:50:09;28.60;77.00
18884;DHT22;9574;47.282;9.640;2023-06-14T15:52:38;28.70;78.00